createdAt,value
2023-05-20T00:03:49.377Z,13.35
2023-05-20T00:08:55.681Z,13.17
2023-05-20T00:13:58.514Z,13.09
2023-05-20T00:19:01.592Z,13.34
2023-05-20T00:24:06.156Z,13.30
2023-05-20T00:29:08.967Z,13.16
2023-05-20T00:34:11.789Z,13.29
2023-05-20T00:39:16.068Z,13.11
2023-05-20T00:44:19.013Z,13.10
2023-05-20T00:49:22.688Z,13.04
2023-05-20T00:54:26.990Z,12.81
2023-05-20T00:59:29.919Z,12.88
2023-05-20T01:04:33.001Z,13.03
2023-05-20T01:09:37.116Z,12.88
2023-05-20T01:14:44.328Z,12.89
2023-05-20T01:19:47.395Z,12.87
2023-05-20T01:24:53.600Z,12.72
2023-05-20T01:29:56.480Z,12.68
2023-05-20T01:35:00.051Z,12.56
2023-05-20T01:40:05.396Z,12.51
2023-05-20T01:45:09.082Z,12.37
2023-05-20T01:50:12.076Z,12.35
2023-05-20T01:55:16.238Z,12.22
2023-05-20T02:00:19.745Z,12.25
2023-05-20T02:05:22.595Z,12.24
2023-05-20T02:10:26.785Z,12.22
2023-05-20T02:15:29.569Z,12.20
2023-05-20T02:20:33.097Z,12.08
2023-05-20T02:25:38.514Z,12.18
2023-05-20T02:30:41.605Z,12.06
2023-05-20T02:35:44.345Z,12.10
2023-05-20T02:40:48.469Z,12.16
2023-05-20T02:45:52.410Z,12.08
2023-05-20T02:50:55.349Z,12.13
2023-05-20T02:56:00.007Z,12.01
2023-05-20T03:01:02.928Z,12.06
2023-05-20T03:06:06.211Z,11.96
2023-05-20T03:11:10.401Z,11.85
2023-05-20T03:16:13.512Z,11.84
2023-05-20T03:21:16.420Z,11.62
2023-05-20T03:26:21.766Z,11.57
2023-05-20T03:31:24.674Z,11.62
2023-05-20T03:36:28.405Z,11.71
2023-05-20T03:41:33.246Z,11.57
2023-05-20T03:46:36.224Z,11.52
2023-05-20T03:51:39.461Z,11.54
2023-05-20T03:56:49.343Z,11.36
2023-05-20T04:01:52.245Z,11.36
2023-05-20T04:06:56.167Z,11.38
2023-05-20T04:12:01.221Z,11.37
2023-05-20T04:17:05.964Z,11.41
2023-05-20T04:22:09.116Z,11.30
2023-05-20T04:27:14.000Z,11.32
2023-05-20T04:32:19.332Z,11.24
2023-05-20T04:37:23.506Z,11.33
2023-05-20T04:42:29.883Z,11.46
2023-05-20T04:47:38.757Z,11.31
2023-05-20T04:52:43.051Z,11.54
2023-05-20T04:57:48.298Z,11.49
2023-05-20T05:02:51.735Z,11.69
2023-05-20T05:07:55.342Z,11.70
2023-05-20T05:13:00.125Z,11.65
2023-05-20T05:18:03.350Z,11.82
2023-05-20T05:23:07.166Z,11.64
2023-05-20T05:28:11.524Z,11.67
2023-05-20T05:33:15.710Z,11.72
2023-05-20T05:38:18.757Z,11.97
2023-05-20T05:43:23.914Z,11.81
2023-05-20T05:48:27.809Z,11.89
2023-05-20T05:53:30.618Z,11.85
2023-05-20T05:58:34.947Z,11.81
2023-05-20T06:03:39.928Z,11.93
2023-05-20T06:08:43.142Z,12.07
2023-05-20T06:13:49.050Z,11.88
2023-05-20T06:18:53.127Z,11.89
2023-05-20T06:23:56.031Z,12.06
2023-05-20T06:29:00.727Z,12.08
2023-05-20T06:34:03.678Z,12.19
2023-05-20T06:39:12.122Z,12.28
2023-05-20T06:44:17.393Z,12.10
2023-05-20T06:49:34.650Z,12.20
2023-05-20T06:54:41.242Z,12.23
2023-05-20T06:59:47.627Z,12.45
2023-05-20T07:04:51.672Z,12.60
2023-05-20T07:09:55.885Z,12.64
2023-05-20T07:15:00.225Z,12.70
2023-05-20T07:20:04.140Z,12.91
2023-05-20T07:25:09.101Z,13.15
2023-05-20T07:30:14.685Z,13.41
2023-05-20T07:35:24.493Z,13.62
2023-05-20T07:40:27.356Z,13.74
2023-05-20T07:45:31.798Z,13.87
2023-05-20T07:50:34.985Z,14.09
2023-05-20T07:55:37.926Z,14.19
2023-05-20T08:00:43.280Z,13.95
2023-05-20T08:05:47.134Z,14.41
2023-05-20T08:10:52.228Z,14.76
2023-05-20T08:15:57.776Z,15.07
2023-05-20T08:21:01.962Z,15.27
2023-05-20T08:26:05.137Z,15.65
2023-05-20T08:31:11.383Z,15.88
2023-05-20T08:36:14.860Z,16.04
2023-05-20T08:41:17.780Z,16.29
2023-05-20T08:46:24.873Z,16.47
2023-05-20T08:51:29.061Z,16.47
2023-05-20T08:56:33.824Z,16.65
2023-05-20T09:01:42.923Z,16.88
2023-05-20T09:06:46.887Z,17.04
2023-05-20T09:11:49.654Z,17.35
2023-05-20T09:16:53.810Z,17.33
2023-05-20T09:21:56.757Z,17.47
2023-05-20T09:27:00.052Z,17.87
2023-05-20T09:32:05.761Z,17.64
2023-05-20T09:37:09.092Z,17.61
2023-05-20T09:42:17.149Z,17.63
2023-05-20T09:47:21.557Z,17.26
2023-05-20T09:52:24.691Z,17.85
2023-05-20T09:57:27.427Z,17.87
2023-05-20T10:02:32.000Z,17.77
2023-05-20T10:08:03.158Z,17.57
2023-05-20T10:13:15.937Z,18.00
2023-05-20T10:18:30.996Z,18.30
2023-05-20T10:23:33.709Z,17.71
2023-05-20T10:28:38.119Z,18.10
2023-05-20T10:33:44.630Z,18.01
2023-05-20T10:38:51.212Z,17.78
2023-05-20T10:44:04.361Z,18.59
2023-05-20T10:49:19.013Z,19.11
2023-05-20T10:54:22.866Z,18.98
2023-05-20T10:59:26.128Z,18.65
2023-05-20T11:04:32.050Z,18.90
2023-05-20T11:09:35.023Z,18.38
2023-05-20T11:14:37.740Z,18.64
2023-05-20T11:19:41.908Z,18.80
2023-05-20T11:24:44.677Z,18.63
2023-05-20T11:29:50.806Z,18.79
2023-05-20T11:34:54.866Z,18.42
2023-05-20T11:40:09.382Z,18.58
2023-05-20T11:45:14.681Z,18.77
2023-05-20T11:50:21.031Z,18.81
2023-05-20T11:55:23.776Z,18.99
2023-05-20T12:00:29.172Z,19.17
2023-05-20T12:05:35.430Z,19.29
2023-05-20T12:10:38.444Z,18.89
2023-05-20T12:15:41.444Z,19.03
2023-05-20T12:20:45.610Z,19.08
2023-05-20T12:25:49.881Z,18.88
2023-05-20T12:30:52.913Z,18.37
2023-05-20T12:35:57.048Z,18.67
2023-05-20T12:40:59.805Z,18.61
2023-05-20T12:46:02.560Z,18.17
2023-05-20T12:51:06.968Z,18.39
2023-05-20T12:56:09.727Z,18.74
2023-05-20T13:01:12.651Z,18.85
2023-05-20T13:06:16.796Z,19.56
2023-05-20T13:11:19.656Z,19.02
2023-05-20T13:16:22.395Z,19.08
2023-05-20T13:21:26.588Z,19.54
2023-05-20T13:26:29.387Z,19.74
2023-05-20T13:31:32.205Z,20.15
2023-05-20T13:36:36.409Z,19.78
2023-05-20T13:41:39.109Z,19.27
2023-05-20T13:46:41.816Z,19.24
2023-05-20T13:51:46.392Z,19.62
2023-05-20T13:56:49.449Z,19.66
2023-05-20T14:01:52.684Z,19.14
2023-05-20T14:06:56.846Z,18.58
2023-05-20T14:11:59.624Z,18.96
2023-05-20T14:17:02.412Z,18.65
2023-05-20T14:22:06.603Z,18.53
2023-05-20T14:27:09.449Z,18.79
2023-05-20T14:32:13.471Z,18.88
2023-05-20T14:37:17.653Z,18.50
2023-05-20T14:42:20.392Z,18.77
2023-05-20T14:47:23.180Z,18.64
2023-05-20T14:52:27.636Z,18.58
2023-05-20T14:57:30.728Z,18.63
2023-05-20T15:02:33.662Z,18.34
2023-05-20T15:07:37.880Z,18.84
2023-05-20T15:12:40.966Z,18.41
2023-05-20T15:17:43.796Z,18.43
2023-05-20T15:22:48.658Z,17.90
2023-05-20T15:27:51.402Z,18.22
2023-05-20T15:32:54.301Z,18.38
2023-05-20T15:37:58.500Z,18.02
2023-05-20T15:43:01.536Z,18.31
2023-05-20T15:48:04.647Z,18.14
2023-05-20T15:53:09.573Z,17.99
2023-05-20T15:58:12.461Z,17.76
2023-05-20T16:03:16.325Z,17.75
2023-05-20T16:08:23.815Z,17.95
2023-05-20T16:13:26.699Z,17.62
2023-05-20T16:18:29.679Z,17.67
2023-05-20T16:23:33.801Z,17.74
2023-05-20T16:28:36.616Z,17.16
2023-05-20T16:33:39.369Z,17.46
2023-05-20T16:38:43.434Z,17.50
2023-05-20T16:43:46.171Z,17.69
2023-05-20T16:48:48.996Z,17.62
2023-05-20T16:53:53.171Z,17.60
2023-05-20T16:58:56.130Z,17.58
2023-05-20T17:03:59.034Z,17.52
2023-05-20T17:09:04.423Z,17.52
2023-05-20T17:14:07.150Z,17.19
2023-05-20T17:19:09.935Z,17.35
2023-05-20T17:24:14.050Z,17.08
2023-05-20T17:29:16.786Z,17.29
2023-05-20T17:34:19.616Z,17.24
2023-05-20T17:39:23.779Z,17.36
2023-05-20T17:44:26.565Z,17.32
2023-05-20T17:49:29.362Z,17.31
2023-05-20T17:54:33.489Z,17.13
2023-05-20T17:59:41.824Z,17.27
2023-05-20T18:04:44.621Z,17.05
2023-05-20T18:09:48.735Z,16.94
2023-05-20T18:14:51.570Z,17.01
2023-05-20T18:19:54.375Z,16.95
2023-05-20T18:24:58.858Z,16.76
2023-05-20T18:30:01.589Z,16.71
2023-05-20T18:35:04.417Z,16.81
2023-05-20T18:40:10.244Z,16.67
2023-05-20T18:45:13.111Z,16.66
2023-05-20T18:50:16.191Z,16.54
2023-05-20T18:55:20.596Z,16.59
2023-05-20T19:00:23.820Z,16.21
2023-05-20T19:05:26.776Z,16.49
2023-05-20T19:10:30.912Z,16.61
2023-05-20T19:15:33.985Z,16.42
2023-05-20T19:20:37.037Z,16.52
2023-05-20T19:25:41.379Z,16.40
2023-05-20T19:30:44.184Z,16.34
2023-05-20T19:35:46.986Z,16.31
2023-05-20T19:40:51.096Z,16.24
2023-05-20T19:45:53.948Z,16.25
2023-05-20T19:50:56.913Z,16.21
2023-05-20T19:56:01.030Z,16.15
2023-05-20T20:01:04.502Z,16.13
2023-05-20T20:06:07.257Z,16.11
2023-05-20T20:11:11.478Z,15.91
2023-05-20T20:16:15.469Z,15.68
2023-05-20T20:21:18.340Z,15.71
2023-05-20T20:26:25.834Z,15.73
2023-05-20T20:31:28.750Z,15.51
2023-05-20T20:36:32.113Z,15.72
2023-05-20T20:41:38.604Z,15.59
2023-05-20T20:46:41.754Z,15.70
2023-05-20T20:51:44.524Z,15.65
2023-05-20T20:56:49.967Z,15.49
2023-05-20T21:01:52.851Z,15.46
2023-05-20T21:06:55.640Z,15.57
2023-05-20T21:12:00.361Z,15.14
2023-05-20T21:17:03.224Z,15.30
2023-05-20T21:22:06.342Z,15.29
2023-05-20T21:27:10.443Z,15.21
2023-05-20T21:32:13.233Z,15.07
2023-05-20T21:37:15.989Z,15.09
2023-05-20T21:42:20.135Z,14.95
2023-05-20T21:47:23.009Z,15.00
2023-05-20T21:52:25.843Z,14.96
2023-05-20T21:57:29.966Z,14.87
2023-05-20T22:02:32.774Z,14.75
2023-05-20T22:07:35.613Z,14.66
2023-05-20T22:12:39.690Z,14.73
2023-05-20T22:17:44.747Z,14.71
2023-05-20T22:22:47.527Z,14.60
2023-05-20T22:27:51.702Z,14.53
2023-05-20T22:32:54.536Z,14.42
2023-05-20T22:37:57.375Z,14.40
2023-05-20T22:43:01.631Z,14.34
2023-05-20T22:48:04.796Z,14.28
2023-05-20T22:53:07.590Z,14.24
2023-05-20T22:58:12.291Z,14.21
2023-05-20T23:03:15.157Z,14.16
2023-05-20T23:08:17.937Z,14.06
2023-05-20T23:13:22.060Z,14.07
2023-05-20T23:18:24.847Z,13.93
2023-05-20T23:23:31.271Z,13.90
2023-05-20T23:28:36.276Z,13.92
2023-05-20T23:33:39.123Z,13.87
2023-05-20T23:38:42.104Z,13.80
2023-05-20T23:43:46.353Z,13.76
2023-05-20T23:48:49.893Z,13.82
2023-05-20T23:53:52.663Z,13.76
2023-05-20T23:58:57.666Z,13.76
